createdAt,value
2023-02-23T00:00:33.326Z,97944.84
2023-02-23T00:03:02.062Z,97945.16
2023-02-23T00:05:32.126Z,97952.47
2023-02-23T00:07:59.293Z,97946.62
2023-02-23T00:10:30.647Z,97951.47
2023-02-23T00:13:01.113Z,97954.28
2023-02-23T00:15:29.896Z,97947.25
2023-02-23T00:17:58.000Z,97947.03
2023-02-23T00:20:27.499Z,97953.00
2023-02-23T00:22:55.924Z,97949.88
2023-02-23T00:25:24.214Z,97954.75
2023-02-23T00:27:52.543Z,97948.41
2023-02-23T00:30:20.667Z,97953.63
2023-02-23T00:32:47.613Z,97951.13
2023-02-23T00:35:17.734Z,97950.72
2023-02-23T00:37:46.176Z,97949.19
2023-02-23T00:40:16.493Z,97944.06
2023-02-23T00:42:45.286Z,97945.94
2023-02-23T00:45:13.959Z,97950.37
2023-02-23T00:47:45.497Z,97946.53
2023-02-23T00:50:17.382Z,97945.09
2023-02-23T00:52:44.872Z,97945.53
2023-02-23T00:55:14.150Z,97942.28
2023-02-23T00:57:41.820Z,97944.13
2023-02-23T01:00:19.833Z,97948.16
2023-02-23T01:02:49.831Z,97946.19
2023-02-23T01:05:17.059Z,97937.09
2023-02-23T01:07:47.117Z,97946.16
2023-02-23T01:10:20.363Z,97946.28
2023-02-23T01:12:48.904Z,97947.72
2023-02-23T01:15:15.941Z,97944.66
2023-02-23T01:17:43.241Z,97946.97
2023-02-23T01:20:17.966Z,97941.09
2023-02-23T01:22:49.830Z,97941.84
2023-02-23T01:25:17.721Z,97946.06
2023-02-23T01:27:45.349Z,97925.16
2023-02-23T01:30:15.127Z,97934.91
2023-02-23T01:32:42.051Z,97937.53
2023-02-23T01:35:10.464Z,97936.25
2023-02-23T01:37:40.695Z,97933.59
2023-02-23T01:40:28.786Z,97929.78
2023-02-23T01:43:12.501Z,97937.63
2023-02-23T01:45:40.756Z,97932.59
2023-02-23T01:48:38.129Z,97934.34
2023-02-23T01:51:13.977Z,97934.50
2023-02-23T01:53:44.636Z,97932.44
2023-02-23T01:56:15.434Z,97930.84
2023-02-23T01:58:45.666Z,97930.34
2023-02-23T02:01:12.953Z,97932.91
2023-02-23T02:03:46.929Z,97937.25
2023-02-23T02:06:15.881Z,97930.97
2023-02-23T02:08:50.970Z,97936.94
2023-02-23T02:11:36.270Z,97925.94
2023-02-23T02:14:13.348Z,97930.53
2023-02-23T02:17:05.100Z,97925.78
2023-02-23T02:20:05.570Z,97932.56
2023-02-23T02:22:58.322Z,97932.56
2023-02-23T02:25:33.820Z,97930.22
2023-02-23T02:28:25.634Z,97924.22
2023-02-23T02:31:30.390Z,97935.97
2023-02-23T02:34:12.497Z,97923.75
2023-02-23T02:36:42.282Z,97923.91
2023-02-23T02:39:38.132Z,97926.16
2023-02-23T02:42:23.217Z,97923.78
2023-02-23T02:44:59.407Z,97923.31
2023-02-23T02:47:34.814Z,97916.59
2023-02-23T02:50:12.636Z,97915.91
2023-02-23T02:53:01.631Z,97921.38
2023-02-23T02:55:34.545Z,97909.94
2023-02-23T02:58:02.835Z,97917.75
2023-02-23T03:00:56.724Z,97925.97
2023-02-23T03:03:51.449Z,97923.09
2023-02-23T03:06:39.242Z,97917.47
2023-02-23T03:09:39.592Z,97930.06
2023-02-23T03:13:08.656Z,97921.75
2023-02-23T03:16:27.058Z,97925.69
2023-02-23T03:19:34.255Z,97930.84
2023-02-23T03:22:40.979Z,97925.16
2023-02-23T03:25:34.542Z,97929.13
2023-02-23T03:28:33.202Z,97926.06
2023-02-23T03:31:32.922Z,97926.59
2023-02-23T03:34:48.186Z,97932.16
2023-02-23T03:37:45.100Z,97931.88
2023-02-23T03:40:43.814Z,97936.34
2023-02-23T03:43:33.788Z,97944.41
2023-02-23T03:49:06.804Z,97941.72
2023-02-23T03:51:54.576Z,97940.84
2023-02-23T03:54:56.328Z,97936.81
2023-02-23T03:57:44.680Z,97937.13
2023-02-23T04:00:34.851Z,97942.69
2023-02-23T04:03:21.376Z,97946.84
2023-02-23T04:06:07.359Z,97950.94
2023-02-23T04:08:55.928Z,97946.97
2023-02-23T04:11:47.095Z,97940.78
2023-02-23T04:14:19.010Z,97943.09
2023-02-23T04:16:46.080Z,97950.59
2023-02-23T04:19:12.991Z,97947.47
2023-02-23T04:21:39.853Z,97947.62
2023-02-23T04:24:06.773Z,97949.03
2023-02-23T04:26:33.634Z,97948.16
2023-02-23T04:29:00.587Z,97950.53
2023-02-23T04:31:27.754Z,97949.72
2023-02-23T04:33:54.742Z,97945.38
2023-02-23T04:36:21.433Z,97954.88
2023-02-23T04:38:48.324Z,97951.84
2023-02-23T04:41:15.201Z,97954.00
2023-02-23T04:43:42.041Z,97959.53
2023-02-23T04:46:09.283Z,97961.31
2023-02-23T04:48:36.247Z,97963.44
2023-02-23T04:51:03.217Z,97962.22
2023-02-23T04:53:30.088Z,97956.09
2023-02-23T04:55:56.940Z,97963.00
2023-02-23T04:58:23.609Z,97960.38
2023-02-23T05:00:50.528Z,97960.69
2023-02-23T05:03:20.432Z,97962.19
2023-02-23T05:05:47.421Z,97961.00
2023-02-23T05:08:14.353Z,97958.72
2023-02-23T05:10:41.232Z,97958.59
2023-02-23T05:13:08.146Z,97960.72
2023-02-23T05:15:34.997Z,97965.91
2023-02-23T05:18:01.690Z,97970.03
2023-02-23T05:20:28.580Z,97965.91
2023-02-23T05:22:55.450Z,97972.13
2023-02-23T05:25:22.158Z,97977.19
2023-02-23T05:27:49.019Z,97972.47
2023-02-23T05:30:16.048Z,97979.94
2023-02-23T05:32:42.958Z,97976.81
2023-02-23T05:35:10.043Z,97971.69
2023-02-23T05:37:37.008Z,97977.25
2023-02-23T05:40:04.489Z,97979.09
2023-02-23T05:42:31.336Z,97981.19
2023-02-23T05:44:58.008Z,97980.97
2023-02-23T05:47:24.907Z,97990.88
2023-02-23T05:49:51.860Z,97986.81
2023-02-23T05:52:18.744Z,97986.34
2023-02-23T05:54:46.872Z,97988.72
2023-02-23T05:57:13.775Z,97992.53
2023-02-23T05:59:40.766Z,97997.16
2023-02-23T06:02:07.664Z,98001.91
2023-02-23T06:04:34.569Z,98007.16
2023-02-23T06:07:01.489Z,98007.03
2023-02-23T06:09:28.397Z,98015.47
2023-02-23T06:11:55.344Z,98011.13
2023-02-23T06:14:22.157Z,98012.94
2023-02-23T06:16:52.002Z,98014.50
2023-02-23T06:19:18.955Z,98028.47
2023-02-23T06:21:46.884Z,98026.78
2023-02-23T06:24:13.794Z,98025.97
2023-02-23T06:26:41.568Z,98022.75
2023-02-23T06:29:09.232Z,98032.59
2023-02-23T06:31:36.200Z,98032.69
2023-02-23T06:34:03.175Z,98039.97
2023-02-23T06:36:30.411Z,98034.03
2023-02-23T06:39:00.382Z,98032.25
2023-02-23T06:41:27.472Z,98038.03
2023-02-23T06:43:54.368Z,98035.97
2023-02-23T06:46:21.468Z,98037.94
2023-02-23T06:48:48.390Z,98053.66
2023-02-23T06:51:15.331Z,98037.09
2023-02-23T06:53:42.182Z,98048.91
2023-02-23T06:56:09.512Z,98050.22
2023-02-23T06:58:38.533Z,98047.97
2023-02-23T07:01:05.591Z,98054.75
2023-02-23T07:03:32.623Z,98051.06
2023-02-23T07:05:59.636Z,98057.06
2023-02-23T07:08:26.570Z,98057.56
2023-02-23T07:10:53.410Z,98059.47
2023-02-23T07:13:20.874Z,98068.78
2023-02-23T07:15:47.786Z,98061.72
2023-02-23T07:18:14.647Z,98069.03
2023-02-23T07:20:41.380Z,98074.53
2023-02-23T07:23:08.265Z,98074.75
2023-02-23T07:25:35.410Z,98070.13
2023-02-23T07:28:03.342Z,98069.72
2023-02-23T07:30:30.306Z,98071.50
2023-02-23T07:32:57.231Z,98075.03
2023-02-23T07:35:24.095Z,98070.28
2023-02-23T07:37:51.012Z,98067.28
2023-02-23T07:40:19.513Z,98072.81
2023-02-23T07:42:46.355Z,98072.16
2023-02-23T07:45:13.054Z,98070.81
2023-02-23T07:47:39.979Z,98079.47
2023-02-23T07:50:13.047Z,98075.28
2023-02-23T07:52:41.340Z,98079.31
2023-02-23T07:55:09.035Z,98075.09
2023-02-23T07:57:35.953Z,98077.09
2023-02-23T08:00:03.219Z,98075.56
2023-02-23T08:02:30.144Z,98078.72
2023-02-23T08:04:56.989Z,98083.28
2023-02-23T08:07:24.658Z,98076.72
2023-02-23T08:09:52.012Z,98084.25
2023-02-23T08:12:18.896Z,98083.81
2023-02-23T08:14:45.872Z,98083.47
2023-02-23T08:17:12.875Z,98084.09
2023-02-23T08:19:40.273Z,98091.97
2023-02-23T08:22:09.918Z,98091.94
2023-02-23T08:24:37.583Z,98088.81
2023-02-23T08:27:04.764Z,98086.44
2023-02-23T08:29:31.701Z,98096.44
2023-02-23T08:31:58.762Z,98092.81
2023-02-23T08:34:25.753Z,98092.03
2023-02-23T08:36:54.035Z,98076.47
2023-02-23T08:39:21.745Z,98092.38
2023-02-23T08:41:48.658Z,98090.09
2023-02-23T08:44:15.615Z,98092.69
2023-02-23T08:46:42.792Z,98088.34
2023-02-23T08:49:11.628Z,98087.28
2023-02-23T08:51:41.664Z,98085.47
2023-02-23T08:54:14.385Z,98090.81
2023-02-23T08:56:41.768Z,98088.84
2023-02-23T08:59:09.515Z,98095.41
2023-02-23T09:01:37.376Z,98094.09
2023-02-23T09:04:05.679Z,98094.75
2023-02-23T09:06:35.334Z,98097.88
2023-02-23T09:09:03.096Z,98094.87
2023-02-23T09:11:29.980Z,98096.09
2023-02-23T09:13:56.876Z,98100.25
2023-02-23T09:16:23.854Z,98097.00
2023-02-23T09:18:50.709Z,98093.25
2023-02-23T09:21:22.433Z,98099.12
2023-02-23T09:23:51.484Z,98095.87
2023-02-23T09:26:19.272Z,98095.47
2023-02-23T09:28:46.682Z,98099.41
2023-02-23T09:31:16.951Z,98098.62
2023-02-23T09:33:44.014Z,98099.59
2023-02-23T09:36:14.617Z,98101.50
2023-02-23T09:38:41.501Z,98103.81
2023-02-23T09:41:26.604Z,98107.28
2023-02-23T09:44:02.281Z,98100.75
2023-02-23T09:46:38.934Z,98101.47
2023-02-23T09:49:12.923Z,98102.75
2023-02-23T09:51:42.659Z,98108.31
2023-02-23T09:54:11.952Z,98111.91
2023-02-23T09:56:41.373Z,98102.63
2023-02-23T09:59:14.783Z,98111.03
2023-02-23T10:02:06.383Z,98103.59
2023-02-23T10:05:12.030Z,98101.59
2023-02-23T10:08:02.694Z,98096.91
2023-02-23T10:10:53.187Z,98106.59
2023-02-23T10:13:27.747Z,98102.69
2023-02-23T10:16:38.058Z,98107.03
2023-02-23T10:19:29.494Z,98097.34
2023-02-23T10:21:59.986Z,98100.34
2023-02-23T10:25:15.225Z,98099.66
2023-02-23T10:27:45.631Z,98093.28
2023-02-23T10:30:29.245Z,98090.84
2023-02-23T10:32:59.452Z,98095.91
2023-02-23T10:35:28.758Z,98086.81
2023-02-23T10:37:56.828Z,98082.78
2023-02-23T10:40:27.747Z,98084.44
2023-02-23T10:42:56.064Z,98077.16
2023-02-23T10:45:25.706Z,98079.47
2023-02-23T10:47:58.819Z,98078.19
2023-02-23T10:50:29.272Z,98078.28
2023-02-23T10:53:05.057Z,98076.38
2023-02-23T10:55:32.903Z,98085.09
2023-02-23T10:58:17.058Z,98080.50
2023-02-23T11:00:57.439Z,98068.13
2023-02-23T11:03:42.885Z,98061.47
2023-02-23T11:06:29.735Z,98056.34
2023-02-23T11:08:56.837Z,98052.56
2023-02-23T11:11:29.019Z,98050.06
2023-02-23T11:13:59.974Z,98054.16
2023-02-23T11:16:31.558Z,98045.84
2023-02-23T11:19:05.732Z,98046.12
2023-02-23T11:21:34.638Z,98047.47
2023-02-23T11:24:11.945Z,98051.59
2023-02-23T11:26:41.877Z,98044.13
2023-02-23T11:45:58.432Z,98042.66
2023-02-23T11:48:49.254Z,98044.06
2023-02-23T11:51:27.633Z,98031.00
2023-02-23T11:53:54.754Z,98035.84
2023-02-23T11:56:25.706Z,98023.91
2023-02-23T11:59:02.404Z,98030.38
2023-02-23T12:01:41.889Z,98028.97
2023-02-23T12:04:10.290Z,98025.81
2023-02-23T12:06:39.977Z,98022.91
2023-02-23T12:09:21.258Z,98020.00
2023-02-23T12:12:05.302Z,98022.09
2023-02-23T12:14:33.785Z,98022.34
2023-02-23T12:17:05.415Z,98021.47
2023-02-23T12:19:37.191Z,98022.38
2023-02-23T12:22:25.825Z,98017.34
2023-02-23T12:24:57.877Z,98001.63
2023-02-23T12:27:41.721Z,98012.66
2023-02-23T12:30:19.128Z,98000.94
2023-02-23T12:32:46.897Z,98006.34
2023-02-23T12:35:18.642Z,98004.97
2023-02-23T12:37:48.853Z,97989.50
2023-02-23T12:40:20.029Z,98001.03
2023-02-23T12:42:54.619Z,98003.59
2023-02-23T12:45:26.842Z,97996.50
2023-02-23T12:48:00.967Z,97995.50
2023-02-23T12:50:32.357Z,97995.59
2023-02-23T12:53:08.334Z,97988.69
2023-02-23T12:55:45.323Z,97986.34
2023-02-23T12:58:24.925Z,97987.16
2023-02-23T13:01:02.688Z,97983.59
2023-02-23T13:03:33.112Z,97987.03
2023-02-23T13:06:15.151Z,97985.09
2023-02-23T13:09:00.360Z,97982.34
2023-02-23T13:12:06.918Z,97986.75
2023-02-23T13:14:56.185Z,97979.00
2023-02-23T13:17:30.226Z,97972.06
2023-02-23T13:20:02.063Z,97980.97
2023-02-23T13:22:44.033Z,97977.41
2023-02-23T13:25:40.240Z,97971.56
2023-02-23T13:28:09.671Z,97983.88
2023-02-23T13:30:42.616Z,97981.03
2023-02-23T13:33:22.112Z,97978.06
2023-02-23T13:35:50.291Z,97984.72
2023-02-23T13:38:30.216Z,97974.22
2023-02-23T13:41:34.341Z,97970.44
2023-02-23T13:44:25.290Z,97956.78
2023-02-23T13:47:07.194Z,97966.34
2023-02-23T13:49:55.412Z,97969.47
2023-02-23T13:52:40.094Z,97963.56
2023-02-23T13:55:48.721Z,97964.56
2023-02-23T13:58:19.477Z,97955.84
2023-02-23T14:00:54.452Z,97958.37
2023-02-23T14:03:27.614Z,97951.72
2023-02-23T14:05:57.811Z,97958.03
2023-02-23T14:08:34.774Z,97949.13
2023-02-23T14:11:02.018Z,97951.34
2023-02-23T14:13:34.185Z,97957.06
2023-02-23T14:16:17.162Z,97951.50
2023-02-23T14:19:05.702Z,97951.53
2023-02-23T14:21:59.176Z,97945.06
2023-02-23T14:24:27.606Z,97950.75
2023-02-23T14:27:34.506Z,97947.81
2023-02-23T14:30:13.386Z,97954.03
2023-02-23T14:32:45.654Z,97954.47
2023-02-23T14:35:34.328Z,97948.34
2023-02-23T14:38:05.609Z,97943.75
2023-02-23T14:40:39.826Z,97940.88
2023-02-23T14:43:32.467Z,97941.63
2023-02-23T14:46:01.419Z,97945.22
2023-02-23T14:48:31.401Z,97939.84
2023-02-23T14:51:25.335Z,97944.03
2023-02-23T14:53:53.997Z,97939.44
2023-02-23T14:56:28.051Z,97943.41
2023-02-23T14:58:59.091Z,97935.91
2023-02-23T15:01:38.171Z,97935.56
2023-02-23T15:04:10.640Z,97939.19
2023-02-23T15:06:39.519Z,97931.62
2023-02-23T15:09:17.021Z,97934.78
2023-02-23T15:11:46.468Z,97933.31
2023-02-23T15:14:26.879Z,97935.87
2023-02-23T15:16:56.227Z,97932.09
2023-02-23T15:19:33.634Z,97931.81
2023-02-23T15:22:01.245Z,97934.34
2023-02-23T15:24:32.056Z,97932.62
2023-02-23T15:26:59.053Z,97931.59
2023-02-23T15:29:32.006Z,97934.53
2023-02-23T15:32:21.514Z,97931.53
2023-02-23T15:34:48.748Z,97926.34
2023-02-23T15:40:17.040Z,97937.78
2023-02-23T15:42:50.354Z,97934.69
2023-02-23T15:45:40.497Z,97930.00
2023-02-23T15:48:18.415Z,97930.94
2023-02-23T15:50:50.364Z,97930.50
2023-02-23T15:53:34.568Z,97924.28
2023-02-23T15:56:14.415Z,97928.69
2023-02-23T15:58:56.480Z,97922.78
2023-02-23T16:01:26.727Z,97927.94
2023-02-23T16:04:12.257Z,97933.22
2023-02-23T16:06:45.796Z,97926.28
2023-02-23T16:09:26.145Z,97924.53
2023-02-23T16:12:01.781Z,97932.22
2023-02-23T16:14:43.950Z,97920.72
2023-02-23T16:17:22.411Z,97919.03
2023-02-23T16:19:49.366Z,97917.16
2023-02-23T16:22:25.870Z,97925.00
2023-02-23T16:25:02.802Z,97919.91
2023-02-23T16:27:30.129Z,97911.28
2023-02-23T16:30:06.944Z,97921.63
2023-02-23T16:32:37.055Z,97919.75
2023-02-23T16:35:19.659Z,97921.91
2023-02-23T16:37:59.520Z,97914.94
2023-02-23T16:40:26.395Z,97916.38
2023-02-23T16:42:54.071Z,97916.47
2023-02-23T16:45:21.855Z,97914.66
2023-02-23T16:47:49.501Z,97915.75
2023-02-23T16:50:20.753Z,97919.03
2023-02-23T16:52:53.702Z,97921.09
2023-02-23T16:55:26.142Z,97919.87
2023-02-23T16:57:58.735Z,97919.00
2023-02-23T17:00:30.337Z,97917.38
2023-02-23T17:03:00.701Z,97926.59
2023-02-23T17:05:28.620Z,97919.72
2023-02-23T17:07:57.717Z,97927.31
2023-02-23T17:10:34.874Z,97936.94
2023-02-23T17:13:08.225Z,97925.03
2023-02-23T17:15:39.672Z,97936.94
2023-02-23T17:18:06.707Z,97931.62
2023-02-23T17:20:34.286Z,97928.03
2023-02-23T17:23:02.349Z,97923.38
2023-02-23T17:25:29.560Z,97921.81
2023-02-23T17:27:57.516Z,97926.28
2023-02-23T17:30:24.822Z,97923.03
2023-02-23T17:32:53.119Z,97924.03
2023-02-23T17:35:20.232Z,97924.06
2023-02-23T17:37:47.519Z,97919.13
2023-02-23T17:40:17.544Z,97922.28
2023-02-23T17:42:44.592Z,97924.91
2023-02-23T17:45:11.594Z,97923.75
2023-02-23T17:47:42.816Z,97925.56
2023-02-23T17:50:10.679Z,97920.97
2023-02-23T17:52:37.596Z,97915.22
2023-02-23T17:55:04.697Z,97918.47
2023-02-23T17:57:33.094Z,97921.31
2023-02-23T17:59:59.966Z,97917.44
2023-02-23T18:02:27.620Z,97918.56
2023-02-23T18:04:54.473Z,97918.88
2023-02-23T18:07:21.829Z,97923.25
2023-02-23T18:09:50.291Z,97918.59
2023-02-23T18:12:19.536Z,97912.69
2023-02-23T18:14:46.877Z,97916.31
2023-02-23T18:17:15.776Z,97915.78
2023-02-23T18:19:43.334Z,97910.56
2023-02-23T18:22:10.863Z,97908.19
2023-02-23T18:24:38.281Z,97901.53
2023-02-23T18:27:05.474Z,97905.09
2023-02-23T18:29:34.376Z,97905.13
2023-02-23T18:32:02.451Z,97905.47
2023-02-23T18:34:30.292Z,97902.31
2023-02-23T18:37:02.382Z,97897.72
2023-02-23T18:39:31.218Z,97900.75
2023-02-23T18:41:58.780Z,97899.66
2023-02-23T18:44:26.502Z,97897.97
2023-02-23T18:46:54.984Z,97904.00
2023-02-23T18:49:24.644Z,97906.94
2023-02-23T18:51:51.598Z,97900.84
2023-02-23T18:54:18.996Z,97907.38
2023-02-23T18:56:47.379Z,97901.19
2023-02-23T18:59:15.538Z,97897.37
2023-02-23T19:01:45.470Z,97902.16
2023-02-23T19:04:13.078Z,97907.13
2023-02-23T19:06:43.453Z,97899.81
2023-02-23T19:09:13.473Z,97898.31
2023-02-23T19:11:43.705Z,97904.72
2023-02-23T19:14:18.345Z,97902.84
2023-02-23T19:16:46.896Z,97905.91
2023-02-23T19:19:14.346Z,97906.09
2023-02-23T19:21:41.340Z,97907.97
2023-02-23T19:24:08.629Z,97907.22
2023-02-23T19:26:37.379Z,97911.41
2023-02-23T19:29:04.783Z,97907.91
2023-02-23T19:31:32.190Z,97900.41
2023-02-23T19:33:59.875Z,97906.97
2023-02-23T19:36:31.917Z,97904.97
2023-02-23T19:39:10.620Z,97913.69
2023-02-23T19:41:39.680Z,97910.75
2023-02-23T19:44:06.804Z,97904.19
2023-02-23T19:46:35.070Z,97904.13
2023-02-23T19:49:02.024Z,97902.44
2023-02-23T19:51:29.195Z,97906.03
2023-02-23T19:54:00.136Z,97909.72
2023-02-23T19:56:28.182Z,97900.66
2023-02-23T19:58:56.026Z,97902.66
2023-02-23T20:01:27.605Z,97896.38
2023-02-23T20:04:02.030Z,97902.94
2023-02-23T20:06:32.131Z,97889.25
2023-02-23T20:09:00.261Z,97895.31
2023-02-23T20:11:27.662Z,97893.53
2023-02-23T20:13:57.129Z,97892.63
2023-02-23T20:16:29.727Z,97887.88
2023-02-23T20:18:57.644Z,97887.13
2023-02-23T20:21:26.898Z,97881.75
2023-02-23T20:23:55.424Z,97880.66
2023-02-23T20:26:26.627Z,97881.75
2023-02-23T20:28:57.999Z,97874.09
2023-02-23T20:31:29.151Z,97868.16
2023-02-23T20:33:58.710Z,97864.12
2023-02-23T20:36:26.157Z,97859.59
2023-02-23T20:38:53.358Z,97860.91
2023-02-23T20:41:20.860Z,97851.34
2023-02-23T20:43:47.921Z,97854.84
2023-02-23T20:46:16.554Z,97857.34
2023-02-23T20:48:43.809Z,97850.94
2023-02-23T20:51:13.871Z,97857.50
2023-02-23T20:53:41.126Z,97852.63
2023-02-23T20:56:09.780Z,97852.09
2023-02-23T20:58:36.986Z,97854.78
2023-02-23T21:01:07.071Z,97849.94
2023-02-23T21:03:35.740Z,97842.22
2023-02-23T21:06:02.680Z,97847.72
2023-02-23T21:08:30.579Z,97845.94
2023-02-23T21:10:57.492Z,97841.41
2023-02-23T21:13:26.602Z,97841.00
2023-02-23T21:16:01.296Z,97842.31
2023-02-23T21:18:29.350Z,97839.59
2023-02-23T21:20:57.016Z,97832.97
2023-02-23T21:23:24.677Z,97840.84
2023-02-23T21:25:53.397Z,97844.75
2023-02-23T21:28:20.901Z,97833.31
2023-02-23T21:30:47.796Z,97833.38
2023-02-23T21:33:15.312Z,97834.22
2023-02-23T21:35:42.195Z,97837.97
2023-02-23T21:38:10.590Z,97827.31
2023-02-23T21:40:42.313Z,97835.78
2023-02-23T21:43:09.420Z,97837.25
2023-02-23T21:45:39.231Z,97832.03
2023-02-23T21:48:06.107Z,97826.69
2023-02-23T21:50:33.125Z,97831.06
2023-02-23T21:53:00.112Z,97826.06
2023-02-23T21:55:27.014Z,97825.66
2023-02-23T21:57:53.892Z,97828.16
2023-02-23T22:00:21.908Z,97820.50
2023-02-23T22:02:49.442Z,97817.03
2023-02-23T22:05:17.568Z,97818.09
2023-02-23T22:07:49.048Z,97821.16
2023-02-23T22:10:17.717Z,97815.34
2023-02-23T22:12:44.702Z,97820.25
2023-02-23T22:15:12.022Z,97817.66
2023-02-23T22:17:38.887Z,97815.59
2023-02-23T22:20:07.468Z,97812.75
2023-02-23T22:22:38.151Z,97810.28
2023-02-23T22:25:07.029Z,97805.59
2023-02-23T22:27:33.919Z,97801.75
2023-02-23T22:30:02.113Z,97796.59
2023-02-23T22:32:33.183Z,97797.41
2023-02-23T22:35:01.052Z,97791.31
2023-02-23T22:37:31.681Z,97795.97
2023-02-23T22:40:00.326Z,97799.50
2023-02-23T22:42:30.845Z,97788.00
2023-02-23T22:44:57.792Z,97796.50
2023-02-23T22:47:24.829Z,97793.53
2023-02-23T22:49:51.783Z,97786.81
2023-02-23T22:52:18.677Z,97788.59
2023-02-23T22:54:46.518Z,97787.16
2023-02-23T22:57:13.669Z,97789.28
2023-02-23T22:59:40.531Z,97779.12
2023-02-23T23:02:07.404Z,97786.50
2023-02-23T23:04:34.677Z,97778.91
2023-02-23T23:07:01.821Z,97778.94
2023-02-23T23:09:28.764Z,97774.09
2023-02-23T23:11:56.837Z,97766.72
2023-02-23T23:14:23.756Z,97769.97
2023-02-23T23:16:50.744Z,97765.31
2023-02-23T23:19:24.352Z,97773.47
2023-02-23T23:21:55.360Z,97772.75
2023-02-23T23:24:23.965Z,97768.91
2023-02-23T23:27:00.360Z,97771.34
2023-02-23T23:29:30.221Z,97768.41
2023-02-23T23:31:57.483Z,97769.88
2023-02-23T23:34:25.386Z,97765.00
2023-02-23T23:36:53.418Z,97751.13
2023-02-23T23:39:22.508Z,97760.06
2023-02-23T23:41:50.375Z,97758.03
2023-02-23T23:44:20.007Z,97749.06
2023-02-23T23:46:47.360Z,97746.00
2023-02-23T23:49:20.512Z,97746.75
2023-02-23T23:51:51.057Z,97732.00
2023-02-23T23:54:20.231Z,97734.72
2023-02-23T23:56:47.647Z,97732.31
2023-02-23T23:59:16.622Z,97734.47
